createdAt,value
2019-05-22T00:00:06.958Z,22.20
2019-05-22T00:02:40.714Z,21.17
2019-05-22T00:05:24.064Z,21.23
2019-05-22T00:07:52.429Z,28.60
2019-05-22T00:10:25.394Z,29.80
2019-05-22T00:12:54.164Z,30.00
2019-05-22T00:15:23.754Z,30.43
2019-05-22T00:17:53.599Z,30.57
2019-05-22T00:20:22.795Z,32.50
2019-05-22T00:22:52.745Z,30.53
2019-05-22T00:25:20.667Z,32.60
2019-05-22T00:27:49.708Z,32.23
2019-05-22T00:30:17.690Z,31.47
2019-05-22T00:32:47.531Z,28.67
2019-05-22T00:35:16.286Z,29.80
2019-05-22T00:37:45.306Z,32.13
2019-05-22T00:40:14.856Z,36.50
2019-05-22T00:42:44.320Z,32.33
2019-05-22T00:45:14.241Z,34.57
2019-05-22T00:47:42.977Z,35.63
2019-05-22T00:50:15.727Z,34.30
2019-05-22T00:52:48.969Z,35.03
2019-05-22T00:55:36.201Z,34.93
2019-05-22T00:58:16.491Z,33.23
2019-05-22T01:01:00.020Z,32.83
2019-05-22T01:03:29.185Z,33.67
2019-05-22T01:05:58.163Z,34.83
2019-05-22T01:08:27.487Z,34.27
2019-05-22T01:10:56.977Z,34.67
2019-05-22T01:13:30.231Z,31.37
2019-05-22T01:15:59.285Z,31.67
2019-05-22T01:18:28.146Z,32.47
2019-05-22T01:20:58.410Z,31.30
2019-05-22T01:23:29.460Z,32.07
2019-05-22T01:25:58.730Z,34.93
2019-05-22T01:28:27.307Z,32.90
2019-05-22T01:31:02.610Z,33.13
2019-05-22T01:33:32.494Z,32.10
2019-05-22T01:36:23.036Z,32.73
2019-05-22T01:38:52.647Z,32.10
2019-05-22T01:41:25.945Z,31.57
2019-05-22T01:43:55.697Z,29.07
2019-05-22T01:46:24.858Z,32.17
2019-05-22T01:48:55.868Z,32.70
2019-05-22T01:51:24.576Z,33.63
2019-05-22T01:53:53.186Z,36.03
2019-05-22T01:56:20.640Z,35.70
2019-05-22T01:58:49.934Z,33.77
2019-05-22T02:01:19.159Z,30.73
2019-05-22T02:03:46.968Z,30.40
2019-05-22T02:06:16.398Z,31.03
2019-05-22T02:08:51.169Z,33.47
2019-05-22T02:11:21.842Z,30.70
2019-05-22T02:13:56.196Z,28.67
2019-05-22T02:16:23.794Z,32.10
2019-05-22T02:18:51.828Z,30.93
2019-05-22T02:21:19.872Z,32.73
2019-05-22T02:23:48.101Z,31.57
2019-05-22T02:26:16.560Z,29.53
2019-05-22T02:28:44.440Z,27.63
2019-05-22T02:31:14.690Z,29.93
2019-05-22T02:34:01.011Z,25.80
2019-05-22T02:36:28.532Z,29.27
2019-05-22T02:38:56.713Z,31.47
2019-05-22T02:41:26.179Z,32.67
2019-05-22T02:43:55.304Z,27.33
2019-05-22T02:46:22.721Z,30.40
2019-05-22T02:48:51.586Z,29.00
2019-05-22T02:51:19.536Z,30.37
2019-05-22T02:53:49.333Z,30.03
2019-05-22T02:56:17.523Z,29.83
2019-05-22T02:58:45.483Z,28.27
2019-05-22T03:01:13.457Z,28.50
2019-05-22T03:03:40.810Z,31.17
2019-05-22T03:06:11.701Z,29.20
2019-05-22T03:09:07.435Z,25.70
2019-05-22T03:11:38.990Z,24.10
2019-05-22T03:14:08.683Z,22.77
2019-05-22T03:16:50.560Z,22.40
2019-05-22T03:19:25.894Z,20.97
2019-05-22T03:21:54.648Z,21.97
2019-05-22T03:24:22.497Z,23.47
2019-05-22T03:26:52.762Z,23.40
2019-05-22T03:29:26.804Z,23.10
2019-05-22T03:31:54.397Z,22.97
2019-05-22T03:34:21.755Z,23.03
2019-05-22T03:36:49.683Z,22.40
2019-05-22T03:39:18.728Z,23.23
2019-05-22T03:41:46.634Z,22.30
2019-05-22T03:44:15.304Z,23.13
2019-05-22T03:46:45.880Z,21.57
2019-05-22T03:49:28.886Z,20.77
2019-05-22T03:51:50.123Z,19.27
2019-05-22T03:54:19.405Z,17.67
2019-05-22T03:56:47.187Z,17.87
2019-05-22T03:59:14.643Z,16.87
2019-05-22T04:01:42.985Z,16.10
2019-05-22T04:04:11.052Z,17.70
2019-05-22T04:06:40.766Z,16.77
2019-05-22T04:09:19.336Z,17.10
2019-05-22T04:11:46.852Z,17.83
2019-05-22T04:14:14.346Z,17.60
2019-05-22T04:16:43.714Z,14.40
2019-05-22T04:19:12.509Z,13.67
2019-05-22T04:21:39.835Z,14.13
2019-05-22T04:24:07.510Z,14.10
2019-05-22T04:26:35.265Z,14.43
2019-05-22T04:29:05.011Z,13.37
2019-05-22T04:31:48.955Z,14.80
2019-05-22T04:34:17.181Z,15.17
2019-05-22T04:36:46.277Z,15.07
2019-05-22T04:39:19.974Z,15.33
2019-05-22T04:41:47.283Z,15.83
2019-05-22T04:44:14.760Z,15.47
2019-05-22T04:46:44.978Z,15.43
2019-05-22T04:49:12.725Z,15.13
2019-05-22T04:51:40.271Z,14.27
2019-05-22T04:54:07.648Z,16.07
2019-05-22T04:56:35.407Z,16.80
2019-05-22T04:59:03.711Z,16.27
2019-05-22T05:01:31.980Z,15.97
2019-05-22T05:03:59.870Z,15.47
2019-05-22T05:06:30.719Z,15.67
2019-05-22T05:08:58.477Z,15.53
2019-05-22T05:11:26.042Z,14.90
2019-05-22T05:13:54.162Z,16.10
2019-05-22T05:16:21.543Z,14.63
2019-05-22T05:18:49.006Z,16.30
2019-05-22T05:21:16.587Z,17.03
2019-05-22T05:23:43.951Z,16.20
2019-05-22T05:26:11.512Z,14.53
2019-05-22T05:28:39.069Z,16.07
2019-05-22T05:31:06.416Z,15.43
2019-05-22T05:33:43.729Z,14.53
2019-05-22T05:36:12.247Z,14.07
2019-05-22T05:38:39.800Z,13.30
2019-05-22T05:41:07.266Z,15.20
2019-05-22T05:43:34.872Z,15.10
2019-05-22T05:46:03.094Z,14.73
2019-05-22T05:48:32.492Z,15.03
2019-05-22T05:51:32.655Z,15.77
2019-05-22T05:54:06.733Z,14.37
2019-05-22T05:56:35.095Z,15.17
2019-05-22T05:59:04.946Z,14.27
2019-05-22T06:01:35.943Z,13.23
2019-05-22T06:04:03.907Z,12.80
2019-05-22T06:07:13.331Z,13.00
2019-05-22T06:09:41.501Z,11.57
2019-05-22T06:12:11.381Z,12.07
2019-05-22T06:14:41.345Z,12.50
2019-05-22T06:17:51.131Z,13.33
2019-05-22T06:20:19.775Z,13.43
2019-05-22T06:23:40.255Z,12.70
2019-05-22T06:26:09.511Z,12.87
2019-05-22T06:28:37.733Z,12.70
2019-05-22T06:31:09.966Z,12.47
2019-05-22T06:33:38.169Z,13.43
2019-05-22T06:36:08.367Z,12.10
2019-05-22T06:38:56.875Z,11.67
2019-05-22T06:41:28.315Z,11.97
2019-05-22T06:44:58.719Z,11.37
2019-05-22T06:47:28.257Z,11.30
2019-05-22T06:49:56.850Z,11.60
2019-05-22T06:52:24.387Z,11.30
2019-05-22T06:54:52.707Z,10.97
2019-05-22T06:57:33.471Z,10.87
2019-05-22T07:00:13.977Z,12.10
2019-05-22T07:02:38.245Z,11.90
2019-05-22T07:05:06.515Z,11.73
2019-05-22T07:07:33.960Z,12.30
2019-05-22T07:10:01.450Z,12.70
2019-05-22T07:12:30.782Z,11.90
2019-05-22T07:15:49.614Z,12.00
2019-05-22T07:18:20.100Z,12.33
2019-05-22T07:20:49.154Z,12.10
2019-05-22T07:23:22.148Z,11.60
2019-05-22T07:25:51.033Z,11.70
2019-05-22T07:28:19.730Z,11.57
2019-05-22T07:30:48.227Z,11.27
2019-05-22T07:33:16.424Z,11.43
2019-05-22T07:35:56.747Z,11.17
2019-05-22T07:38:15.057Z,11.37
2019-05-22T07:40:43.285Z,12.03
2019-05-22T07:43:10.670Z,11.40
2019-05-22T07:45:38.063Z,10.90
2019-05-22T07:48:07.277Z,11.40
2019-05-22T07:50:39.947Z,9.83
2019-05-22T07:53:07.902Z,11.10
2019-05-22T07:55:35.228Z,11.03
2019-05-22T07:58:14.081Z,11.37
2019-05-22T08:00:47.150Z,10.17
2019-05-22T08:03:15.389Z,10.70
2019-05-22T08:05:47.963Z,10.67
2019-05-22T08:08:18.704Z,9.70
2019-05-22T08:10:45.882Z,10.27
2019-05-22T08:13:14.099Z,10.27
2019-05-22T08:15:41.798Z,9.07
2019-05-22T08:18:09.609Z,8.93
2019-05-22T08:20:38.117Z,8.50
2019-05-22T08:23:07.169Z,7.67
2019-05-22T08:25:34.745Z,9.07
2019-05-22T08:28:02.960Z,8.43
2019-05-22T08:30:30.410Z,8.33
2019-05-22T08:33:01.974Z,7.20
2019-05-22T08:35:30.432Z,7.00
2019-05-22T08:37:58.758Z,7.20
2019-05-22T08:40:26.524Z,7.13
2019-05-22T08:42:54.961Z,8.30
2019-05-22T08:45:22.951Z,8.27
2019-05-22T08:47:50.445Z,8.30
2019-05-22T08:50:20.424Z,8.67
2019-05-22T08:52:48.534Z,8.80
2019-05-22T08:55:16.345Z,8.17
2019-05-22T08:57:45.758Z,8.03
2019-05-22T09:00:15.977Z,8.00
2019-05-22T09:02:44.154Z,7.60
2019-05-22T09:05:12.577Z,7.40
2019-05-22T09:07:41.601Z,7.37
2019-05-22T09:10:10.684Z,8.03
2019-05-22T09:12:38.072Z,7.87
2019-05-22T09:15:06.355Z,7.40
2019-05-22T09:17:33.714Z,7.50
2019-05-22T09:20:01.763Z,7.00
2019-05-22T09:22:39.982Z,7.00
2019-05-22T09:25:00.199Z,6.60
2019-05-22T09:27:27.777Z,6.77
2019-05-22T09:29:55.169Z,6.53
2019-05-22T09:32:22.635Z,6.87
2019-05-22T09:34:50.284Z,6.40
2019-05-22T09:37:18.080Z,7.10
2019-05-22T09:39:45.421Z,6.70
2019-05-22T09:42:13.499Z,6.60
2019-05-22T09:44:40.885Z,6.47
2019-05-22T09:47:08.878Z,6.50
2019-05-22T09:49:37.175Z,6.70
2019-05-22T09:52:09.136Z,6.17
2019-05-22T09:54:37.194Z,5.73
2019-05-22T09:57:05.032Z,5.70
2019-05-22T09:59:32.637Z,6.00
2019-05-22T10:02:00.124Z,6.20
2019-05-22T10:04:28.241Z,6.70
2019-05-22T10:06:55.856Z,6.00
2019-05-22T10:09:24.736Z,6.20
2019-05-22T10:11:53.036Z,6.07
2019-05-22T10:14:21.362Z,6.00
2019-05-22T10:16:48.822Z,6.20
2019-05-22T10:19:16.614Z,5.80
2019-05-22T10:21:44.564Z,5.87
2019-05-22T10:24:12.586Z,6.40
2019-05-22T10:26:40.455Z,6.60
2019-05-22T10:29:08.417Z,6.67
2019-05-22T10:31:36.016Z,6.00
2019-05-22T10:34:03.497Z,6.13
2019-05-22T10:36:31.671Z,6.20
2019-05-22T10:38:59.091Z,6.47
2019-05-22T10:41:27.041Z,6.10
2019-05-22T10:43:54.419Z,6.63
2019-05-22T10:46:21.921Z,5.97
2019-05-22T10:48:49.412Z,6.07
2019-05-22T10:51:16.882Z,6.07
2019-05-22T10:53:44.269Z,6.27
2019-05-22T10:56:11.799Z,5.70
2019-05-22T10:58:39.283Z,6.20
2019-05-22T11:01:08.049Z,6.43
2019-05-22T11:03:36.003Z,6.10
2019-05-22T11:06:07.669Z,5.87
2019-05-22T11:08:34.452Z,6.17
2019-05-22T11:11:02.246Z,5.90
2019-05-22T11:13:29.724Z,6.37
2019-05-22T11:15:58.185Z,6.50
2019-05-22T11:18:25.837Z,6.27
2019-05-22T11:20:53.191Z,5.97
2019-05-22T11:23:20.789Z,6.70
2019-05-22T11:25:48.544Z,5.73
2019-05-22T11:28:16.009Z,6.87
2019-05-22T11:30:43.458Z,6.37
2019-05-22T11:33:11.057Z,6.73
2019-05-22T11:35:38.503Z,6.43
2019-05-22T11:38:06.631Z,6.63
2019-05-22T11:40:34.156Z,7.03
2019-05-22T11:43:02.487Z,6.50
2019-05-22T11:45:30.197Z,6.60
2019-05-22T11:47:57.559Z,6.93
2019-05-22T11:50:27.232Z,6.87
2019-05-22T11:52:54.699Z,6.90
2019-05-22T11:55:42.154Z,6.37
2019-05-22T11:57:53.108Z,6.27
2019-05-22T12:00:22.553Z,6.53
2019-05-22T12:02:50.992Z,6.70
2019-05-22T12:05:19.365Z,6.80
2019-05-22T12:07:47.444Z,6.60
2019-05-22T12:10:15.433Z,6.50
2019-05-22T12:12:43.857Z,7.30
2019-05-22T12:15:12.367Z,6.57
2019-05-22T12:17:40.061Z,6.97
2019-05-22T12:20:09.688Z,6.70
2019-05-22T12:22:38.012Z,6.70
2019-05-22T12:25:05.892Z,7.00
2019-05-22T12:27:33.571Z,6.50
2019-05-22T12:30:01.566Z,7.00
2019-05-22T12:32:29.595Z,6.37
2019-05-22T12:34:57.175Z,6.37
2019-05-22T12:37:24.607Z,6.27
2019-05-22T12:39:51.944Z,6.53
2019-05-22T12:42:20.126Z,6.40
2019-05-22T12:44:48.022Z,6.03
2019-05-22T12:47:15.969Z,7.20
2019-05-22T12:49:43.496Z,6.37
2019-05-22T12:52:10.890Z,6.80
2019-05-22T12:54:47.353Z,6.57
2019-05-22T12:57:09.844Z,6.67
2019-05-22T12:59:37.224Z,6.30
2019-05-22T13:02:06.693Z,6.70
2019-05-22T13:04:34.340Z,6.23
2019-05-22T13:07:02.703Z,6.83
2019-05-22T13:09:30.839Z,6.60
2019-05-22T13:11:59.309Z,6.40
2019-05-22T13:14:26.708Z,6.47
2019-05-22T13:16:55.014Z,6.80
2019-05-22T13:19:22.950Z,8.00
2019-05-22T13:21:53.119Z,7.77
2019-05-22T13:24:22.410Z,8.57
2019-05-22T13:26:50.374Z,8.90
2019-05-22T13:29:18.030Z,8.60
2019-05-22T13:31:47.824Z,9.00
2019-05-22T13:34:16.183Z,8.83
2019-05-22T13:36:45.081Z,9.43
2019-05-22T13:39:14.333Z,9.73
2019-05-22T13:41:42.257Z,9.10
2019-05-22T13:44:09.990Z,9.50
2019-05-22T13:46:37.657Z,8.90
2019-05-22T13:49:06.212Z,9.13
2019-05-22T13:51:33.899Z,9.27
2019-05-22T13:54:01.380Z,9.43
2019-05-22T13:56:28.809Z,9.10
2019-05-22T13:58:56.775Z,8.23
2019-05-22T14:01:24.571Z,7.77
2019-05-22T14:03:53.090Z,7.67
2019-05-22T14:06:20.428Z,7.20
2019-05-22T14:08:48.019Z,7.37
2019-05-22T14:11:16.511Z,6.83
2019-05-22T14:13:44.179Z,6.90
2019-05-22T14:16:14.631Z,6.00
2019-05-22T14:18:41.984Z,6.03
2019-05-22T14:21:09.442Z,7.00
2019-05-22T14:23:36.955Z,6.20
2019-05-22T14:26:04.380Z,6.50
2019-05-22T14:28:31.889Z,6.90
2019-05-22T14:30:59.412Z,5.90
2019-05-22T14:33:28.293Z,6.40
2019-05-22T14:35:56.651Z,5.50
2019-05-22T14:38:25.189Z,6.27
2019-05-22T14:40:52.954Z,5.87
2019-05-22T14:43:20.269Z,5.80
2019-05-22T14:45:47.840Z,5.50
2019-05-22T14:48:15.694Z,5.53
2019-05-22T14:50:43.989Z,4.80
2019-05-22T14:53:12.097Z,4.70
2019-05-22T14:55:40.375Z,4.97
2019-05-22T14:58:08.369Z,4.37
2019-05-22T15:00:37.641Z,4.63
2019-05-22T15:03:05.916Z,4.97
2019-05-22T15:05:33.352Z,4.30
2019-05-22T15:08:00.742Z,4.37
2019-05-22T15:10:28.915Z,4.33
2019-05-22T15:12:56.396Z,4.57
2019-05-22T15:15:23.938Z,4.10
2019-05-22T15:17:52.507Z,4.60
2019-05-22T15:20:26.932Z,4.07
2019-05-22T15:22:56.100Z,4.20
2019-05-22T15:25:25.422Z,4.20
2019-05-22T15:27:53.465Z,3.83
2019-05-22T15:30:20.949Z,3.90
2019-05-22T15:32:48.316Z,4.30
2019-05-22T15:35:15.788Z,3.53
2019-05-22T15:37:44.308Z,4.23
2019-05-22T15:40:13.205Z,4.10
2019-05-22T15:42:44.104Z,4.57
2019-05-22T15:45:14.739Z,4.47
2019-05-22T15:47:54.785Z,4.60
2019-05-22T15:50:18.961Z,4.03
2019-05-22T15:52:53.812Z,4.77
2019-05-22T15:55:24.214Z,4.50
2019-05-22T15:57:51.599Z,4.20
2019-05-22T16:00:23.872Z,4.83
2019-05-22T16:02:51.232Z,5.13
2019-05-22T16:05:20.836Z,5.10
2019-05-22T16:07:49.362Z,5.30
2019-05-22T16:10:21.093Z,4.97
2019-05-22T16:12:48.675Z,5.40
2019-05-22T16:15:19.105Z,5.10
2019-05-22T16:17:48.697Z,5.10
2019-05-22T16:20:18.997Z,5.37
2019-05-22T16:22:46.742Z,4.13
2019-05-22T16:25:15.059Z,5.63
2019-05-22T16:27:43.458Z,4.83
2019-05-22T16:30:11.466Z,4.87
2019-05-22T16:32:40.244Z,4.77
2019-05-22T16:35:09.003Z,5.37
2019-05-22T16:37:37.147Z,4.97
2019-05-22T16:40:05.240Z,4.63
2019-05-22T16:42:33.395Z,4.90
2019-05-22T16:45:01.226Z,4.73
2019-05-22T16:47:28.947Z,5.27
2019-05-22T16:49:57.878Z,5.17
2019-05-22T16:52:27.766Z,5.13
2019-05-22T16:54:55.806Z,4.87
2019-05-22T16:57:24.169Z,6.07
2019-05-22T16:59:52.100Z,6.03
2019-05-22T17:02:19.949Z,5.57
2019-05-22T17:04:48.150Z,5.63
2019-05-22T17:07:16.415Z,5.17
2019-05-22T17:09:45.677Z,5.10
2019-05-22T17:12:16.372Z,4.60
2019-05-22T17:14:45.232Z,3.53
2019-05-22T17:17:16.009Z,4.40
2019-05-22T17:19:43.484Z,4.53
2019-05-22T17:22:12.237Z,3.30
2019-05-22T17:24:39.591Z,4.53
2019-05-22T17:27:09.675Z,4.57
2019-05-22T17:29:37.579Z,5.20
2019-05-22T17:32:05.717Z,4.73
2019-05-22T17:34:36.611Z,5.43
2019-05-22T17:37:08.897Z,5.43
2019-05-22T17:39:39.486Z,5.70
2019-05-22T17:42:09.184Z,5.60
2019-05-22T17:44:38.746Z,5.80
2019-05-22T17:47:07.998Z,5.93
2019-05-22T17:49:35.464Z,5.07
2019-05-22T17:52:04.662Z,6.03
2019-05-22T17:54:32.772Z,4.77
2019-05-22T17:57:00.647Z,6.13
2019-05-22T17:59:28.127Z,6.70
2019-05-22T18:01:55.569Z,6.27
2019-05-22T18:04:23.327Z,6.23
2019-05-22T18:06:51.029Z,7.10
2019-05-22T18:09:18.761Z,7.30
2019-05-22T18:11:46.255Z,5.57
2019-05-22T18:14:14.499Z,6.87
2019-05-22T18:16:42.255Z,7.23
2019-05-22T18:19:10.896Z,7.80
2019-05-22T18:21:39.476Z,6.40
2019-05-22T18:24:08.218Z,6.67
2019-05-22T18:26:35.776Z,6.47
2019-05-22T18:29:03.678Z,7.00
2019-05-22T18:31:31.169Z,7.07
2019-05-22T18:33:58.552Z,6.53
2019-05-22T18:36:26.051Z,7.03
2019-05-22T18:38:53.487Z,6.10
2019-05-22T18:41:20.969Z,6.40
2019-05-22T18:43:48.717Z,6.67
2019-05-22T18:46:16.267Z,5.67
2019-05-22T18:48:43.639Z,6.47
2019-05-22T18:51:11.080Z,5.93
2019-05-22T18:53:39.354Z,5.17
2019-05-22T18:56:10.647Z,4.83
2019-05-22T18:58:37.075Z,3.40
2019-05-22T19:01:04.914Z,4.33
2019-05-22T19:03:32.290Z,4.20
2019-05-22T19:06:01.566Z,4.37
2019-05-22T19:08:29.063Z,4.40
2019-05-22T19:10:56.533Z,4.03
2019-05-22T19:13:23.981Z,4.10
2019-05-22T19:15:51.327Z,3.13
2019-05-22T19:18:18.809Z,5.00
2019-05-22T19:20:46.298Z,4.57
2019-05-22T19:23:13.692Z,2.60
2019-05-22T19:25:41.067Z,4.60
2019-05-22T19:28:08.637Z,4.70
2019-05-22T19:30:36.016Z,4.57
2019-05-22T19:33:04.200Z,4.20
2019-05-22T19:35:32.053Z,4.50
2019-05-22T19:38:00.182Z,3.80
2019-05-22T19:40:28.357Z,4.43
2019-05-22T19:42:56.187Z,4.27
2019-05-22T19:45:23.564Z,4.17
2019-05-22T19:47:55.217Z,3.77
2019-05-22T19:50:24.687Z,3.40
2019-05-22T19:52:52.696Z,3.40
2019-05-22T19:55:20.865Z,4.00
2019-05-22T19:57:49.003Z,2.90
2019-05-22T20:00:17.061Z,2.77
2019-05-22T20:02:45.132Z,3.33
2019-05-22T20:05:12.587Z,3.07
2019-05-22T20:07:40.464Z,3.57
2019-05-22T20:10:10.415Z,3.83
2019-05-22T20:12:38.313Z,4.93
2019-05-22T20:15:07.820Z,5.17
2019-05-22T20:17:35.253Z,5.70
2019-05-22T20:20:04.088Z,6.37
2019-05-22T20:22:32.187Z,6.57
2019-05-22T20:24:59.552Z,6.63
2019-05-22T20:27:27.021Z,7.27
2019-05-22T20:29:54.550Z,6.60
2019-05-22T20:32:22.222Z,6.17
2019-05-22T20:34:49.584Z,7.10
2019-05-22T20:37:18.108Z,6.40
2019-05-22T20:39:46.080Z,7.83
2019-05-22T20:42:13.427Z,6.03
2019-05-22T20:44:41.807Z,6.40
2019-05-22T20:47:10.674Z,5.03
2019-05-22T20:49:41.392Z,4.90
2019-05-22T20:52:10.715Z,7.57
2019-05-22T20:54:38.910Z,7.73
2019-05-22T20:57:08.180Z,6.50
2019-05-22T20:59:37.848Z,7.00
2019-05-22T21:02:05.819Z,8.67
2019-05-22T21:04:34.456Z,6.83
2019-05-22T21:07:06.605Z,8.50
2019-05-22T21:09:34.722Z,9.03
2019-05-22T21:12:03.138Z,8.30
2019-05-22T21:14:30.869Z,7.77
2019-05-22T21:16:58.371Z,7.20
2019-05-22T21:19:27.979Z,6.70
2019-05-22T21:21:57.261Z,7.03
2019-05-22T21:24:25.778Z,9.20
2019-05-22T21:26:53.542Z,8.03
2019-05-22T21:29:21.490Z,4.40
2019-05-22T21:31:49.859Z,5.33
2019-05-22T21:34:17.416Z,6.47
2019-05-22T21:36:44.875Z,7.53
2019-05-22T21:39:13.164Z,6.80
2019-05-22T21:41:40.586Z,6.40
2019-05-22T21:44:08.141Z,6.67
2019-05-22T21:46:36.467Z,4.63
2019-05-22T21:49:06.161Z,4.67
2019-05-22T21:51:33.865Z,4.47
2019-05-22T21:54:01.243Z,3.73
2019-05-22T21:56:29.413Z,5.67
2019-05-22T21:58:57.388Z,4.17
2019-05-22T22:01:30.293Z,5.00
2019-05-22T22:04:03.209Z,3.37
2019-05-22T22:06:33.352Z,5.27
2019-05-22T22:09:00.779Z,5.57
2019-05-22T22:11:28.726Z,5.03
2019-05-22T22:13:56.408Z,5.13
2019-05-22T22:16:24.194Z,5.13
2019-05-22T22:18:52.762Z,4.03
2019-05-22T22:21:20.904Z,4.90
2019-05-22T22:23:48.294Z,4.10
2019-05-22T22:26:25.478Z,4.30
2019-05-22T22:28:46.104Z,4.13
2019-05-22T22:31:17.176Z,4.17
2019-05-22T22:33:49.600Z,3.80
2019-05-22T22:36:17.879Z,3.00
2019-05-22T22:38:45.322Z,2.87
2019-05-22T22:41:13.377Z,3.43
2019-05-22T22:43:43.065Z,2.60
2019-05-22T22:46:20.492Z,3.00
2019-05-22T22:48:50.979Z,3.00
2019-05-22T22:51:20.285Z,3.23
2019-05-22T22:53:48.553Z,2.17
2019-05-22T22:56:16.841Z,2.37
2019-05-22T22:58:45.123Z,1.70
2019-05-22T23:01:20.656Z,2.83
2019-05-22T23:03:49.631Z,2.40
2019-05-22T23:06:17.972Z,2.43
2019-05-22T23:08:46.617Z,2.77
2019-05-22T23:11:16.464Z,3.30
2019-05-22T23:13:44.449Z,3.00
2019-05-22T23:16:11.784Z,3.30
2019-05-22T23:19:27.508Z,3.10
2019-05-22T23:21:53.891Z,2.53
2019-05-22T23:24:23.700Z,3.50
2019-05-22T23:26:51.036Z,3.10
2019-05-22T23:29:19.004Z,2.60
2019-05-22T23:31:47.986Z,2.80
2019-05-22T23:34:16.413Z,3.50
2019-05-22T23:36:44.652Z,1.20
2019-05-22T23:39:14.666Z,2.03
2019-05-22T23:41:42.556Z,2.63
2019-05-22T23:44:11.756Z,1.67
2019-05-22T23:46:40.795Z,2.20
2019-05-22T23:49:09.443Z,2.13
2019-05-22T23:51:37.747Z,2.07
2019-05-22T23:54:05.607Z,1.90
2019-05-22T23:56:35.894Z,2.30
2019-05-22T23:59:03.501Z,2.13
